sensor_id;sensor_type;location;lat;lon;timestamp;P1;durP1;ratioP1;P2;durP2;ratioP2
27209;SDS011;14721;42.668;23.386;2023-05-10T00:01:42;9.50;;;5.60;;
27209;SDS011;14721;42.668;23.386;2023-05-10T00:04:07;10.53;;;5.67;;
27209;SDS011;14721;42.668;23.386;2023-05-10T00:06:33;11.17;;;6.17;;
27209;SDS011;14721;42.668;23.386;2023-05-10T00:08:58;11.63;;;6.57;;
27209;SDS011;14721;42.668;23.386;2023-05-10T00:11:24;11.17;;;6.70;;
27209;SDS011;14721;42.668;23.386;2023-05-10T00:13:50;11.53;;;6.60;;
27209;SDS011;14721;42.668;23.386;2023-05-10T00:16:16;14.27;;;6.90;;
27209;SDS011;14721;42.668;23.386;2023-05-10T00:18:41;12.37;;;6.70;;
27209;SDS011;14721;42.668;23.386;2023-05-10T00:21:07;12.93;;;7.40;;
27209;SDS011;14721;42.668;23.386;2023-05-10T00:23:33;12.07;;;6.93;;
27209;SDS011;14721;42.668;23.386;2023-05-10T00:25:58;11.33;;;6.63;;
27209;SDS011;14721;42.668;23.386;2023-05-10T00:28:24;12.47;;;6.37;;
27209;SDS011;14721;42.668;23.386;2023-05-10T00:30:50;11.40;;;6.50;;
27209;SDS011;14721;42.668;23.386;2023-05-10T00:33:15;11.47;;;6.63;;
27209;SDS011;14721;42.668;23.386;2023-05-10T00:35:40;12.70;;;7.57;;
27209;SDS011;14721;42.668;23.386;2023-05-10T00:38:06;10.40;;;6.70;;
27209;SDS011;14721;42.668;23.386;2023-05-10T00:40:32;10.00;;;6.50;;
27209;SDS011;14721;42.668;23.386;2023-05-10T00:42:57;13.67;;;7.47;;
27209;SDS011;14721;42.668;23.386;2023-05-10T00:45:27;14.37;;;7.90;;
27209;SDS011;14721;42.668;23.386;2023-05-10T00:47:53;11.70;;;8.20;;
27209;SDS011;14721;42.668;23.386;2023-05-10T00:50:20;14.07;;;8.07;;
27209;SDS011;14721;42.668;23.386;2023-05-10T00:52:49;15.30;;;7.80;;
27209;SDS011;14721;42.668;23.386;2023-05-10T00:55:15;13.00;;;8.03;;
27209;SDS011;14721;42.668;23.386;2023-05-10T00:57:40;13.87;;;7.30;;
27209;SDS011;14721;42.668;23.386;2023-05-10T01:00:06;13.47;;;7.20;;
27209;SDS011;14721;42.668;23.386;2023-05-10T01:02:33;11.13;;;6.73;;
27209;SDS011;14721;42.668;23.386;2023-05-10T01:05:00;13.27;;;7.60;;
27209;SDS011;14721;42.668;23.386;2023-05-10T01:07:28;11.63;;;6.37;;
27209;SDS011;14721;42.668;23.386;2023-05-10T01:09:54;12.47;;;7.00;;
27209;SDS011;14721;42.668;23.386;2023-05-10T01:12:22;11.80;;;6.90;;
27209;SDS011;14721;42.668;23.386;2023-05-10T01:14:49;11.77;;;6.10;;
27209;SDS011;14721;42.668;23.386;2023-05-10T01:17:14;10.03;;;6.20;;
27209;SDS011;14721;42.668;23.386;2023-05-10T01:19:41;8.20;;;5.73;;
27209;SDS011;14721;42.668;23.386;2023-05-10T01:22:11;12.73;;;6.43;;
27209;SDS011;14721;42.668;23.386;2023-05-10T01:25:18;10.23;;;6.27;;
27209;SDS011;14721;42.668;23.386;2023-05-10T01:31:06;8.90;;;5.50;;
27209;SDS011;14721;42.668;23.386;2023-05-10T01:33:51;9.87;;;5.33;;
27209;SDS011;14721;42.668;23.386;2023-05-10T01:36:26;8.90;;;5.00;;
27209;SDS011;14721;42.668;23.386;2023-05-10T01:41:57;9.60;;;5.43;;
27209;SDS011;14721;42.668;23.386;2023-05-10T01:44:40;10.73;;;6.13;;
27209;SDS011;14721;42.668;23.386;2023-05-10T01:47:24;10.73;;;6.53;;
27209;SDS011;14721;42.668;23.386;2023-05-10T01:49:54;8.33;;;5.27;;
27209;SDS011;14721;42.668;23.386;2023-05-10T01:52:25;9.87;;;6.13;;
27209;SDS011;14721;42.668;23.386;2023-05-10T01:55:01;10.03;;;4.73;;
27209;SDS011;14721;42.668;23.386;2023-05-10T01:57:34;9.73;;;5.63;;
27209;SDS011;14721;42.668;23.386;2023-05-10T02:00:04;11.47;;;6.20;;
27209;SDS011;14721;42.668;23.386;2023-05-10T02:02:35;9.90;;;6.03;;
27209;SDS011;14721;42.668;23.386;2023-05-10T02:05:05;10.70;;;5.43;;
27209;SDS011;14721;42.668;23.386;2023-05-10T02:07:32;8.63;;;5.20;;
27209;SDS011;14721;42.668;23.386;2023-05-10T02:10:00;10.13;;;4.43;;
27209;SDS011;14721;42.668;23.386;2023-05-10T02:12:41;7.23;;;4.57;;
27209;SDS011;14721;42.668;23.386;2023-05-10T02:15:08;8.23;;;4.87;;
27209;SDS011;14721;42.668;23.386;2023-05-10T02:17:36;9.17;;;5.37;;
27209;SDS011;14721;42.668;23.386;2023-05-10T02:20:03;8.33;;;4.93;;
27209;SDS011;14721;42.668;23.386;2023-05-10T02:22:31;7.70;;;5.13;;
27209;SDS011;14721;42.668;23.386;2023-05-10T02:24:58;9.00;;;4.77;;
27209;SDS011;14721;42.668;23.386;2023-05-10T02:27:26;7.03;;;3.90;;
27209;SDS011;14721;42.668;23.386;2023-05-10T02:29:53;9.67;;;5.00;;
27209;SDS011;14721;42.668;23.386;2023-05-10T02:32:20;9.20;;;5.17;;
27209;SDS011;14721;42.668;23.386;2023-05-10T02:34:47;5.67;;;4.10;;
27209;SDS011;14721;42.668;23.386;2023-05-10T02:37:17;6.17;;;3.50;;
27209;SDS011;14721;42.668;23.386;2023-05-10T02:39:46;7.97;;;3.53;;
27209;SDS011;14721;42.668;23.386;2023-05-10T02:42:14;7.03;;;3.87;;
27209;SDS011;14721;42.668;23.386;2023-05-10T02:44:43;6.37;;;3.40;;
27209;SDS011;14721;42.668;23.386;2023-05-10T02:47:17;5.97;;;3.57;;
27209;SDS011;14721;42.668;23.386;2023-05-10T02:49:44;5.40;;;3.50;;
27209;SDS011;14721;42.668;23.386;2023-05-10T02:52:09;8.20;;;4.07;;
27209;SDS011;14721;42.668;23.386;2023-05-10T02:54:41;7.87;;;3.90;;
27209;SDS011;14721;42.668;23.386;2023-05-10T02:57:20;5.07;;;3.40;;
27209;SDS011;14721;42.668;23.386;2023-05-10T02:59:50;7.07;;;3.77;;
27209;SDS011;14721;42.668;23.386;2023-05-10T03:02:15;9.33;;;4.17;;
27209;SDS011;14721;42.668;23.386;2023-05-10T03:04:41;8.67;;;4.67;;
27209;SDS011;14721;42.668;23.386;2023-05-10T03:07:07;7.20;;;4.00;;
27209;SDS011;14721;42.668;23.386;2023-05-10T03:09:33;6.53;;;3.97;;
27209;SDS011;14721;42.668;23.386;2023-05-10T03:18:12;6.33;;;3.50;;
27209;SDS011;14721;42.668;23.386;2023-05-10T03:20:50;6.93;;;3.63;;
27209;SDS011;14721;42.668;23.386;2023-05-10T03:25:54;6.23;;;3.20;;
27209;SDS011;14721;42.668;23.386;2023-05-10T03:28:20;5.83;;;3.40;;
27209;SDS011;14721;42.668;23.386;2023-05-10T03:30:47;7.43;;;3.83;;
27209;SDS011;14721;42.668;23.386;2023-05-10T03:33:13;5.47;;;3.47;;
27209;SDS011;14721;42.668;23.386;2023-05-10T03:35:59;9.37;;;4.07;;
27209;SDS011;14721;42.668;23.386;2023-05-10T03:38:25;8.87;;;3.60;;
27209;SDS011;14721;42.668;23.386;2023-05-10T03:40:50;7.83;;;3.77;;
27209;SDS011;14721;42.668;23.386;2023-05-10T03:43:15;5.33;;;3.40;;
27209;SDS011;14721;42.668;23.386;2023-05-10T03:45:41;5.63;;;2.93;;
27209;SDS011;14721;42.668;23.386;2023-05-10T03:48:07;6.10;;;3.73;;
27209;SDS011;14721;42.668;23.386;2023-05-10T03:50:32;6.70;;;3.97;;
27209;SDS011;14721;42.668;23.386;2023-05-10T03:52:58;7.53;;;3.43;;
27209;SDS011;14721;42.668;23.386;2023-05-10T03:55:26;6.97;;;3.70;;
27209;SDS011;14721;42.668;23.386;2023-05-10T03:58:01;7.60;;;3.73;;
27209;SDS011;14721;42.668;23.386;2023-05-10T04:00:27;7.33;;;3.60;;
27209;SDS011;14721;42.668;23.386;2023-05-10T04:02:53;6.93;;;3.50;;
27209;SDS011;14721;42.668;23.386;2023-05-10T04:05:18;7.23;;;3.57;;
27209;SDS011;14721;42.668;23.386;2023-05-10T04:07:44;6.87;;;3.53;;
27209;SDS011;14721;42.668;23.386;2023-05-10T04:10:09;7.03;;;4.20;;
27209;SDS011;14721;42.668;23.386;2023-05-10T04:12:36;8.40;;;3.67;;
27209;SDS011;14721;42.668;23.386;2023-05-10T04:15:01;9.17;;;3.93;;
27209;SDS011;14721;42.668;23.386;2023-05-10T04:17:27;13.93;;;4.30;;
27209;SDS011;14721;42.668;23.386;2023-05-10T04:19:53;7.40;;;3.53;;
27209;SDS011;14721;42.668;23.386;2023-05-10T04:22:19;9.23;;;4.93;;
27209;SDS011;14721;42.668;23.386;2023-05-10T04:24:45;7.93;;;4.50;;
27209;SDS011;14721;42.668;23.386;2023-05-10T04:27:11;7.47;;;4.27;;
27209;SDS011;14721;42.668;23.386;2023-05-10T04:29:36;7.40;;;4.43;;
27209;SDS011;14721;42.668;23.386;2023-05-10T04:32:03;5.90;;;3.37;;
27209;SDS011;14721;42.668;23.386;2023-05-10T04:34:29;8.30;;;3.90;;
27209;SDS011;14721;42.668;23.386;2023-05-10T04:36:54;8.20;;;4.10;;
27209;SDS011;14721;42.668;23.386;2023-05-10T04:39:20;6.93;;;3.90;;
27209;SDS011;14721;42.668;23.386;2023-05-10T04:41:45;7.43;;;4.07;;
27209;SDS011;14721;42.668;23.386;2023-05-10T04:44:11;5.43;;;3.20;;
27209;SDS011;14721;42.668;23.386;2023-05-10T04:46:36;8.13;;;4.33;;
27209;SDS011;14721;42.668;23.386;2023-05-10T04:49:02;6.63;;;4.17;;
27209;SDS011;14721;42.668;23.386;2023-05-10T04:51:28;9.13;;;4.33;;
27209;SDS011;14721;42.668;23.386;2023-05-10T04:53:53;7.47;;;4.17;;
27209;SDS011;14721;42.668;23.386;2023-05-10T04:56:19;10.70;;;3.80;;
27209;SDS011;14721;42.668;23.386;2023-05-10T04:58:44;7.70;;;3.83;;
27209;SDS011;14721;42.668;23.386;2023-05-10T05:01:11;8.23;;;3.57;;
27209;SDS011;14721;42.668;23.386;2023-05-10T05:03:37;6.70;;;4.03;;
27209;SDS011;14721;42.668;23.386;2023-05-10T05:06:03;9.40;;;4.93;;
27209;SDS011;14721;42.668;23.386;2023-05-10T05:08:29;7.07;;;3.93;;
27209;SDS011;14721;42.668;23.386;2023-05-10T05:10:54;8.23;;;4.57;;
27209;SDS011;14721;42.668;23.386;2023-05-10T05:13:20;8.50;;;4.47;;
27209;SDS011;14721;42.668;23.386;2023-05-10T05:15:45;5.83;;;3.83;;
27209;SDS011;14721;42.668;23.386;2023-05-10T05:18:11;10.27;;;4.67;;
27209;SDS011;14721;42.668;23.386;2023-05-10T05:20:36;10.10;;;4.90;;
27209;SDS011;14721;42.668;23.386;2023-05-10T05:23:11;10.13;;;4.50;;
27209;SDS011;14721;42.668;23.386;2023-05-10T05:25:55;8.20;;;4.03;;
27209;SDS011;14721;42.668;23.386;2023-05-10T05:28:20;6.90;;;4.27;;
27209;SDS011;14721;42.668;23.386;2023-05-10T05:30:46;8.73;;;3.83;;
27209;SDS011;14721;42.668;23.386;2023-05-10T05:33:13;10.30;;;4.90;;
27209;SDS011;14721;42.668;23.386;2023-05-10T05:35:40;7.10;;;4.60;;
27209;SDS011;14721;42.668;23.386;2023-05-10T05:38:06;11.20;;;4.37;;
27209;SDS011;14721;42.668;23.386;2023-05-10T05:40:31;9.83;;;4.60;;
27209;SDS011;14721;42.668;23.386;2023-05-10T05:42:58;9.13;;;4.90;;
27209;SDS011;14721;42.668;23.386;2023-05-10T05:45:24;8.40;;;3.97;;
27209;SDS011;14721;42.668;23.386;2023-05-10T05:47:49;7.73;;;4.20;;
27209;SDS011;14721;42.668;23.386;2023-05-10T05:50:15;9.97;;;5.10;;
27209;SDS011;14721;42.668;23.386;2023-05-10T05:52:40;8.10;;;4.77;;
27209;SDS011;14721;42.668;23.386;2023-05-10T05:55:06;8.87;;;4.50;;
27209;SDS011;14721;42.668;23.386;2023-05-10T05:57:32;9.40;;;5.30;;
27209;SDS011;14721;42.668;23.386;2023-05-10T05:59:59;8.53;;;5.17;;
27209;SDS011;14721;42.668;23.386;2023-05-10T06:02:25;9.43;;;5.30;;
27209;SDS011;14721;42.668;23.386;2023-05-10T06:04:50;9.43;;;4.67;;
27209;SDS011;14721;42.668;23.386;2023-05-10T06:07:16;10.67;;;5.50;;
27209;SDS011;14721;42.668;23.386;2023-05-10T06:09:45;11.87;;;5.33;;
27209;SDS011;14721;42.668;23.386;2023-05-10T06:12:10;22.67;;;6.87;;
27209;SDS011;14721;42.668;23.386;2023-05-10T06:14:36;11.60;;;5.53;;
27209;SDS011;14721;42.668;23.386;2023-05-10T06:17:02;12.10;;;4.87;;
27209;SDS011;14721;42.668;23.386;2023-05-10T06:19:30;16.03;;;6.27;;
27209;SDS011;14721;42.668;23.386;2023-05-10T06:21:55;14.30;;;5.30;;
27209;SDS011;14721;42.668;23.386;2023-05-10T06:24:21;17.07;;;6.77;;
27209;SDS011;14721;42.668;23.386;2023-05-10T06:26:46;11.80;;;4.93;;
27209;SDS011;14721;42.668;23.386;2023-05-10T06:29:12;10.23;;;4.90;;
27209;SDS011;14721;42.668;23.386;2023-05-10T06:31:37;8.77;;;4.63;;
27209;SDS011;14721;42.668;23.386;2023-05-10T06:34:03;8.63;;;4.80;;
27209;SDS011;14721;42.668;23.386;2023-05-10T06:36:28;10.33;;;4.77;;
27209;SDS011;14721;42.668;23.386;2023-05-10T06:38:53;8.33;;;4.10;;
27209;SDS011;14721;42.668;23.386;2023-05-10T06:41:19;11.37;;;4.80;;
27209;SDS011;14721;42.668;23.386;2023-05-10T06:43:46;9.93;;;5.27;;
27209;SDS011;14721;42.668;23.386;2023-05-10T06:46:11;7.47;;;4.40;;
27209;SDS011;14721;42.668;23.386;2023-05-10T06:48:36;12.57;;;4.30;;
27209;SDS011;14721;42.668;23.386;2023-05-10T06:51:02;8.13;;;4.90;;
27209;SDS011;14721;42.668;23.386;2023-05-10T06:53:27;9.63;;;3.90;;
27209;SDS011;14721;42.668;23.386;2023-05-10T06:55:53;7.83;;;4.30;;
27209;SDS011;14721;42.668;23.386;2023-05-10T06:58:18;8.17;;;4.37;;
27209;SDS011;14721;42.668;23.386;2023-05-10T07:00:44;6.63;;;3.33;;
27209;SDS011;14721;42.668;23.386;2023-05-10T07:03:10;7.50;;;3.70;;
27209;SDS011;14721;42.668;23.386;2023-05-10T07:05:35;6.30;;;3.70;;
27209;SDS011;14721;42.668;23.386;2023-05-10T07:08:01;6.07;;;3.50;;
27209;SDS011;14721;42.668;23.386;2023-05-10T07:10:27;11.20;;;3.50;;
27209;SDS011;14721;42.668;23.386;2023-05-10T07:12:52;10.87;;;4.20;;
27209;SDS011;14721;42.668;23.386;2023-05-10T07:15:18;9.87;;;5.00;;
27209;SDS011;14721;42.668;23.386;2023-05-10T07:17:43;12.23;;;5.13;;
27209;SDS011;14721;42.668;23.386;2023-05-10T07:20:09;7.40;;;4.50;;
27209;SDS011;14721;42.668;23.386;2023-05-10T07:22:35;10.03;;;4.00;;
27209;SDS011;14721;42.668;23.386;2023-05-10T07:25:00;7.60;;;4.00;;
27209;SDS011;14721;42.668;23.386;2023-05-10T07:27:26;7.47;;;4.27;;
27209;SDS011;14721;42.668;23.386;2023-05-10T07:29:51;11.27;;;4.70;;
27209;SDS011;14721;42.668;23.386;2023-05-10T07:32:19;7.50;;;4.40;;
27209;SDS011;14721;42.668;23.386;2023-05-10T07:34:45;7.77;;;4.70;;
27209;SDS011;14721;42.668;23.386;2023-05-10T07:37:11;8.83;;;4.67;;
27209;SDS011;14721;42.668;23.386;2023-05-10T07:39:36;9.37;;;5.07;;
27209;SDS011;14721;42.668;23.386;2023-05-10T07:42:02;7.23;;;4.53;;
27209;SDS011;14721;42.668;23.386;2023-05-10T07:44:27;8.73;;;5.07;;
27209;SDS011;14721;42.668;23.386;2023-05-10T07:46:53;10.10;;;5.30;;
27209;SDS011;14721;42.668;23.386;2023-05-10T07:49:19;9.23;;;5.27;;
27209;SDS011;14721;42.668;23.386;2023-05-10T07:51:44;8.30;;;5.00;;
27209;SDS011;14721;42.668;23.386;2023-05-10T07:54:10;9.70;;;4.83;;
27209;SDS011;14721;42.668;23.386;2023-05-10T07:56:36;11.37;;;5.77;;
27209;SDS011;14721;42.668;23.386;2023-05-10T07:59:02;8.30;;;5.47;;
27209;SDS011;14721;42.668;23.386;2023-05-10T08:01:32;7.43;;;5.17;;
27209;SDS011;14721;42.668;23.386;2023-05-10T08:03:59;10.50;;;4.93;;
27209;SDS011;14721;42.668;23.386;2023-05-10T08:06:25;9.07;;;4.47;;
27209;SDS011;14721;42.668;23.386;2023-05-10T08:08:56;10.70;;;5.80;;
27209;SDS011;14721;42.668;23.386;2023-05-10T08:11:22;8.07;;;4.87;;
27209;SDS011;14721;42.668;23.386;2023-05-10T08:13:49;7.97;;;5.17;;
27209;SDS011;14721;42.668;23.386;2023-05-10T08:16:15;21.63;;;6.43;;
27209;SDS011;14721;42.668;23.386;2023-05-10T08:18:42;8.93;;;5.30;;
27209;SDS011;14721;42.668;23.386;2023-05-10T08:21:09;16.57;;;5.43;;
27209;SDS011;14721;42.668;23.386;2023-05-10T08:23:36;8.77;;;5.50;;
27209;SDS011;14721;42.668;23.386;2023-05-10T08:26:02;9.93;;;5.53;;
27209;SDS011;14721;42.668;23.386;2023-05-10T08:28:27;9.27;;;5.00;;
27209;SDS011;14721;42.668;23.386;2023-05-10T08:30:53;9.93;;;5.77;;
27209;SDS011;14721;42.668;23.386;2023-05-10T08:33:18;10.30;;;5.43;;
27209;SDS011;14721;42.668;23.386;2023-05-10T08:35:44;10.10;;;5.27;;
27209;SDS011;14721;42.668;23.386;2023-05-10T08:38:10;7.60;;;4.47;;
27209;SDS011;14721;42.668;23.386;2023-05-10T08:40:42;15.60;;;5.90;;
27209;SDS011;14721;42.668;23.386;2023-05-10T08:43:12;9.03;;;5.03;;
27209;SDS011;14721;42.668;23.386;2023-05-10T08:45:41;6.67;;;4.87;;
27209;SDS011;14721;42.668;23.386;2023-05-10T08:48:08;6.67;;;3.90;;
27209;SDS011;14721;42.668;23.386;2023-05-10T08:50:43;6.73;;;4.00;;
27209;SDS011;14721;42.668;23.386;2023-05-10T08:53:10;8.40;;;4.83;;
27209;SDS011;14721;42.668;23.386;2023-05-10T08:55:37;6.87;;;4.50;;
27209;SDS011;14721;42.668;23.386;2023-05-10T08:58:06;7.87;;;4.57;;
27209;SDS011;14721;42.668;23.386;2023-05-10T09:00:33;12.00;;;5.97;;
27209;SDS011;14721;42.668;23.386;2023-05-10T09:03:00;9.30;;;5.10;;
27209;SDS011;14721;42.668;23.386;2023-05-10T09:05:26;12.27;;;5.80;;
27209;SDS011;14721;42.668;23.386;2023-05-10T09:07:52;11.93;;;5.73;;
27209;SDS011;14721;42.668;23.386;2023-05-10T09:10:18;8.87;;;5.27;;
27209;SDS011;14721;42.668;23.386;2023-05-10T09:12:44;11.40;;;6.13;;
27209;SDS011;14721;42.668;23.386;2023-05-10T09:15:10;12.23;;;6.83;;
27209;SDS011;14721;42.668;23.386;2023-05-10T09:17:38;11.87;;;6.20;;
27209;SDS011;14721;42.668;23.386;2023-05-10T09:20:04;9.67;;;5.53;;
27209;SDS011;14721;42.668;23.386;2023-05-10T09:22:30;8.80;;;5.37;;
27209;SDS011;14721;42.668;23.386;2023-05-10T09:27:38;8.13;;;5.57;;
27209;SDS011;14721;42.668;23.386;2023-05-10T09:30:05;10.00;;;6.73;;
27209;SDS011;14721;42.668;23.386;2023-05-10T09:32:41;10.50;;;5.30;;
27209;SDS011;14721;42.668;23.386;2023-05-10T09:35:08;8.13;;;5.33;;
27209;SDS011;14721;42.668;23.386;2023-05-10T09:37:42;10.63;;;6.63;;
27209;SDS011;14721;42.668;23.386;2023-05-10T09:40:13;13.60;;;7.50;;
27209;SDS011;14721;42.668;23.386;2023-05-10T09:45:25;7.70;;;5.30;;
27209;SDS011;14721;42.668;23.386;2023-05-10T09:47:52;7.40;;;4.47;;
27209;SDS011;14721;42.668;23.386;2023-05-10T09:50:18;7.30;;;4.80;;
27209;SDS011;14721;42.668;23.386;2023-05-10T09:55:39;8.10;;;4.47;;
27209;SDS011;14721;42.668;23.386;2023-05-10T09:58:04;7.63;;;4.83;;
27209;SDS011;14721;42.668;23.386;2023-05-10T10:00:35;10.33;;;4.83;;
27209;SDS011;14721;42.668;23.386;2023-05-10T10:03:02;7.27;;;5.40;;
27209;SDS011;14721;42.668;23.386;2023-05-10T10:05:29;8.47;;;4.27;;
27209;SDS011;14721;42.668;23.386;2023-05-10T10:07:56;6.50;;;4.13;;
27209;SDS011;14721;42.668;23.386;2023-05-10T10:10:23;8.37;;;4.93;;
27209;SDS011;14721;42.668;23.386;2023-05-10T10:12:49;8.33;;;4.87;;
27209;SDS011;14721;42.668;23.386;2023-05-10T10:15:15;7.00;;;4.67;;
27209;SDS011;14721;42.668;23.386;2023-05-10T10:17:41;6.80;;;4.30;;
27209;SDS011;14721;42.668;23.386;2023-05-10T10:20:08;7.13;;;4.27;;
27209;SDS011;14721;42.668;23.386;2023-05-10T10:22:34;11.67;;;4.60;;
27209;SDS011;14721;42.668;23.386;2023-05-10T10:25:00;6.93;;;4.23;;
27209;SDS011;14721;42.668;23.386;2023-05-10T10:35:55;9.73;;;4.97;;
27209;SDS011;14721;42.668;23.386;2023-05-10T10:38:23;8.70;;;3.90;;
27209;SDS011;14721;42.668;23.386;2023-05-10T10:41:01;7.73;;;4.03;;
27209;SDS011;14721;42.668;23.386;2023-05-10T10:43:34;10.70;;;4.33;;
27209;SDS011;14721;42.668;23.386;2023-05-10T10:46:18;9.13;;;4.30;;
27209;SDS011;14721;42.668;23.386;2023-05-10T10:51:37;7.57;;;3.90;;
27209;SDS011;14721;42.668;23.386;2023-05-10T10:54:10;11.67;;;4.73;;
27209;SDS011;14721;42.668;23.386;2023-05-10T10:56:36;7.30;;;4.97;;
27209;SDS011;14721;42.668;23.386;2023-05-10T10:59:01;8.60;;;4.57;;
27209;SDS011;14721;42.668;23.386;2023-05-10T11:01:32;9.77;;;5.00;;
27209;SDS011;14721;42.668;23.386;2023-05-10T11:06:28;11.67;;;5.10;;
27209;SDS011;14721;42.668;23.386;2023-05-10T11:08:56;8.27;;;5.63;;
27209;SDS011;14721;42.668;23.386;2023-05-10T11:11:22;7.70;;;4.57;;
27209;SDS011;14721;42.668;23.386;2023-05-10T11:13:48;14.83;;;4.67;;
27209;SDS011;14721;42.668;23.386;2023-05-10T11:16:18;6.13;;;3.30;;
27209;SDS011;14721;42.668;23.386;2023-05-10T11:19:18;6.17;;;3.80;;
27209;SDS011;14721;42.668;23.386;2023-05-10T11:21:45;10.30;;;4.57;;
27209;SDS011;14721;42.668;23.386;2023-05-10T11:24:16;7.93;;;3.80;;
27209;SDS011;14721;42.668;23.386;2023-05-10T11:26:43;9.37;;;4.17;;
27209;SDS011;14721;42.668;23.386;2023-05-10T11:29:08;4.23;;;2.90;;
27209;SDS011;14721;42.668;23.386;2023-05-10T11:31:41;8.93;;;4.40;;
27209;SDS011;14721;42.668;23.386;2023-05-10T11:34:11;7.73;;;4.33;;
27209;SDS011;14721;42.668;23.386;2023-05-10T11:36:39;8.87;;;4.33;;
27209;SDS011;14721;42.668;23.386;2023-05-10T11:39:05;7.67;;;4.13;;
27209;SDS011;14721;42.668;23.386;2023-05-10T11:41:31;9.37;;;3.93;;
27209;SDS011;14721;42.668;23.386;2023-05-10T11:43:57;10.07;;;4.43;;
27209;SDS011;14721;42.668;23.386;2023-05-10T11:46:24;7.70;;;4.10;;
27209;SDS011;14721;42.668;23.386;2023-05-10T11:48:52;11.13;;;4.67;;
27209;SDS011;14721;42.668;23.386;2023-05-10T11:51:23;7.47;;;4.13;;
27209;SDS011;14721;42.668;23.386;2023-05-10T11:53:50;5.90;;;3.73;;
27209;SDS011;14721;42.668;23.386;2023-05-10T11:56:18;7.40;;;4.87;;
27209;SDS011;14721;42.668;23.386;2023-05-10T11:58:45;7.03;;;4.13;;
27209;SDS011;14721;42.668;23.386;2023-05-10T12:01:18;11.27;;;5.07;;
27209;SDS011;14721;42.668;23.386;2023-05-10T12:03:43;12.67;;;6.80;;
27209;SDS011;14721;42.668;23.386;2023-05-10T12:06:09;8.30;;;6.00;;
27209;SDS011;14721;42.668;23.386;2023-05-10T12:08:43;9.33;;;5.57;;
27209;SDS011;14721;42.668;23.386;2023-05-10T12:11:11;12.50;;;5.43;;
27209;SDS011;14721;42.668;23.386;2023-05-10T12:13:42;11.87;;;5.00;;
27209;SDS011;14721;42.668;23.386;2023-05-10T12:18:50;7.87;;;5.27;;
27209;SDS011;14721;42.668;23.386;2023-05-10T12:21:17;8.30;;;5.50;;
27209;SDS011;14721;42.668;23.386;2023-05-10T12:23:45;11.27;;;4.47;;
27209;SDS011;14721;42.668;23.386;2023-05-10T12:26:11;12.53;;;5.73;;
27209;SDS011;14721;42.668;23.386;2023-05-10T12:28:37;9.13;;;5.13;;
27209;SDS011;14721;42.668;23.386;2023-05-10T12:31:05;11.30;;;5.33;;
27209;SDS011;14721;42.668;23.386;2023-05-10T12:33:41;12.33;;;5.43;;
27209;SDS011;14721;42.668;23.386;2023-05-10T12:36:08;6.93;;;4.27;;
27209;SDS011;14721;42.668;23.386;2023-05-10T12:38:35;10.40;;;5.67;;
27209;SDS011;14721;42.668;23.386;2023-05-10T12:41:15;8.63;;;5.57;;
27209;SDS011;14721;42.668;23.386;2023-05-10T12:43:43;16.87;;;5.10;;
27209;SDS011;14721;42.668;23.386;2023-05-10T12:46:13;10.70;;;5.30;;
27209;SDS011;14721;42.668;23.386;2023-05-10T12:48:40;11.73;;;5.20;;
27209;SDS011;14721;42.668;23.386;2023-05-10T12:51:07;7.80;;;5.30;;
27209;SDS011;14721;42.668;23.386;2023-05-10T12:53:34;11.37;;;5.10;;
27209;SDS011;14721;42.668;23.386;2023-05-10T12:56:01;8.10;;;4.67;;
27209;SDS011;14721;42.668;23.386;2023-05-10T12:58:26;12.83;;;5.20;;
27209;SDS011;14721;42.668;23.386;2023-05-10T13:00:52;9.13;;;4.60;;
27209;SDS011;14721;42.668;23.386;2023-05-10T13:03:18;8.67;;;5.20;;
27209;SDS011;14721;42.668;23.386;2023-05-10T13:05:43;8.87;;;4.40;;
27209;SDS011;14721;42.668;23.386;2023-05-10T13:08:09;9.23;;;4.77;;
27209;SDS011;14721;42.668;23.386;2023-05-10T13:10:34;13.20;;;5.53;;
27209;SDS011;14721;42.668;23.386;2023-05-10T13:13:00;9.80;;;5.83;;
27209;SDS011;14721;42.668;23.386;2023-05-10T13:15:26;7.43;;;4.60;;
27209;SDS011;14721;42.668;23.386;2023-05-10T13:17:52;7.17;;;4.37;;
27209;SDS011;14721;42.668;23.386;2023-05-10T13:20:18;8.57;;;4.27;;
27209;SDS011;14721;42.668;23.386;2023-05-10T13:22:44;8.13;;;4.30;;
27209;SDS011;14721;42.668;23.386;2023-05-10T13:25:13;9.40;;;4.77;;
27209;SDS011;14721;42.668;23.386;2023-05-10T13:27:40;6.67;;;4.10;;
27209;SDS011;14721;42.668;23.386;2023-05-10T13:30:08;6.70;;;4.07;;
27209;SDS011;14721;42.668;23.386;2023-05-10T13:32:36;12.33;;;4.67;;
27209;SDS011;14721;42.668;23.386;2023-05-10T13:35:04;10.80;;;5.43;;
27209;SDS011;14721;42.668;23.386;2023-05-10T13:37:30;9.87;;;4.00;;
27209;SDS011;14721;42.668;23.386;2023-05-10T13:39:57;9.93;;;4.17;;
27209;SDS011;14721;42.668;23.386;2023-05-10T13:42:25;5.97;;;3.80;;
27209;SDS011;14721;42.668;23.386;2023-05-10T13:44:51;9.53;;;4.47;;
27209;SDS011;14721;42.668;23.386;2023-05-10T13:47:16;10.90;;;5.17;;
27209;SDS011;14721;42.668;23.386;2023-05-10T13:49:41;10.50;;;5.20;;
27209;SDS011;14721;42.668;23.386;2023-05-10T13:52:07;8.40;;;4.53;;
27209;SDS011;14721;42.668;23.386;2023-05-10T13:54:33;9.40;;;4.77;;
27209;SDS011;14721;42.668;23.386;2023-05-10T13:56:59;10.13;;;4.80;;
27209;SDS011;14721;42.668;23.386;2023-05-10T13:59:28;13.77;;;5.03;;
27209;SDS011;14721;42.668;23.386;2023-05-10T14:01:56;11.97;;;5.93;;
27209;SDS011;14721;42.668;23.386;2023-05-10T14:04:29;10.00;;;4.90;;
27209;SDS011;14721;42.668;23.386;2023-05-10T14:06:57;7.57;;;4.63;;
27209;SDS011;14721;42.668;23.386;2023-05-10T14:09:31;7.63;;;4.40;;
27209;SDS011;14721;42.668;23.386;2023-05-10T14:11:57;8.23;;;5.53;;
27209;SDS011;14721;42.668;23.386;2023-05-10T14:14:22;11.00;;;5.53;;
27209;SDS011;14721;42.668;23.386;2023-05-10T14:16:48;9.53;;;5.10;;
27209;SDS011;14721;42.668;23.386;2023-05-10T14:19:13;9.20;;;5.00;;
27209;SDS011;14721;42.668;23.386;2023-05-10T14:21:39;9.93;;;4.57;;
27209;SDS011;14721;42.668;23.386;2023-05-10T14:24:04;11.67;;;5.67;;
27209;SDS011;14721;42.668;23.386;2023-05-10T14:26:31;10.33;;;4.73;;
27209;SDS011;14721;42.668;23.386;2023-05-10T14:28:57;9.27;;;5.83;;
27209;SDS011;14721;42.668;23.386;2023-05-10T14:31:23;7.30;;;4.63;;
27209;SDS011;14721;42.668;23.386;2023-05-10T14:33:50;9.73;;;4.67;;
27209;SDS011;14721;42.668;23.386;2023-05-10T14:36:16;8.73;;;4.80;;
27209;SDS011;14721;42.668;23.386;2023-05-10T14:38:42;8.63;;;4.80;;
27209;SDS011;14721;42.668;23.386;2023-05-10T14:41:08;6.03;;;4.23;;
27209;SDS011;14721;42.668;23.386;2023-05-10T14:43:33;7.60;;;4.23;;
27209;SDS011;14721;42.668;23.386;2023-05-10T14:45:59;9.50;;;4.77;;
27209;SDS011;14721;42.668;23.386;2023-05-10T14:48:24;8.97;;;4.97;;
27209;SDS011;14721;42.668;23.386;2023-05-10T14:50:50;10.10;;;5.00;;
27209;SDS011;14721;42.668;23.386;2023-05-10T14:53:17;7.60;;;4.80;;
27209;SDS011;14721;42.668;23.386;2023-05-10T14:55:43;7.73;;;4.30;;
27209;SDS011;14721;42.668;23.386;2023-05-10T14:58:08;9.43;;;5.20;;
27209;SDS011;14721;42.668;23.386;2023-05-10T15:00:33;7.13;;;4.70;;
27209;SDS011;14721;42.668;23.386;2023-05-10T15:02:59;8.00;;;5.20;;
27209;SDS011;14721;42.668;23.386;2023-05-10T15:05:24;10.27;;;5.27;;
27209;SDS011;14721;42.668;23.386;2023-05-10T15:07:50;10.47;;;5.17;;
27209;SDS011;14721;42.668;23.386;2023-05-10T15:10:15;11.60;;;5.50;;
27209;SDS011;14721;42.668;23.386;2023-05-10T15:12:41;9.33;;;4.83;;